Time;durP1;ratioP1;P1;durP2;ratioP2;P2;SDS_P1;SDS_P2;PMS_P1;PMS_P2;Temp;Humidity;BMP_temperature;BMP_pressure;BME280_temperature;BME280_humidity;BME280_pressure;Samples;Min_cycle;Max_cycle;Signal;HPM_P1;HPM_P2
2023/12/25 00:00:40;;;;;;;8.02;2.95;;;;;;;;;;6078409;29;20068;-87
2023/12/25 00:03:42;;;;;;;8.45;2.70;;;;;;;;;;6074920;29;20259;-85
2023/12/25 00:06:43;;;;;;;6.30;2.33;;;;;;;;;;6079169;29;20048;-85
2023/12/25 00:09:46;;;;;;;7.80;2.08;;;;;;;;;;6080726;29;20348;-85
2023/12/25 00:12:48;;;;;;;8.88;2.90;;;;;;;;;;6077509;29;20066;-84
2023/12/25 00:15:50;;;;;;;7.65;2.72;;;;;;;;;;6081761;29;20055;-85
2023/12/25 00:18:51;;;;;;;7.90;2.47;;;;;;;;;;6079831;29;20051;-85
2023/12/25 00:21:53;;;;;;;10.10;2.67;;;;;;;;;;6086009;29;20044;-85
2023/12/25 00:24:56;;;;;;;11.27;3.28;;;;;;;;;;6079290;29;20053;-86
2023/12/25 00:27:58;;;;;;;7.55;2.65;;;;;;;;;;6074360;29;20048;-86
2023/12/25 00:31:00;;;;;;;8.18;2.88;;;;;;;;;;6079934;29;20056;-85
2023/12/25 00:34:02;;;;;;;5.88;2.70;;;;;;;;;;6083457;29;20153;-85
2023/12/25 00:37:04;;;;;;;11.85;2.80;;;;;;;;;;6078845;29;20057;-86
2023/12/25 00:40:08;;;;;;;12.25;4.30;;;;;;;;;;6079038;29;20060;-85
2023/12/25 00:43:10;;;;;;;12.40;3.80;;;;;;;;;;6082418;29;20060;-86
2023/12/25 00:46:11;;;;;;;8.57;3.92;;;;;;;;;;6080743;29;20053;-86
2023/12/25 00:49:14;;;;;;;12.60;4.20;;;;;;;;;;6080697;29;20057;-85
2023/12/25 00:52:17;;;;;;;16.63;4.05;;;;;;;;;;6080951;29;20383;-86
2023/12/25 00:55:20;;;;;;;12.85;4.63;;;;;;;;;;6081731;29;20096;-85
2023/12/25 00:58:22;;;;;;;10.67;4.77;;;;;;;;;;6081185;29;20323;-85
2023/12/25 01:01:23;;;;;;;9.32;3.55;;;;;;;;;;6083247;29;20045;-85
2023/12/25 01:04:25;;;;;;;12.90;4.03;;;;;;;;;;6080523;29;20061;-85
2023/12/25 01:07:27;;;;;;;14.95;3.83;;;;;;;;;;6082770;29;20100;-85
2023/12/25 01:10:30;;;;;;;9.02;3.65;;;;;;;;;;6080901;29;20107;-86
2023/12/25 01:13:32;;;;;;;10.27;3.20;;;;;;;;;;6081550;29;20332;-84
2023/12/25 01:16:35;;;;;;;11.88;4.15;;;;;;;;;;6078924;29;20085;-84
2023/12/25 01:19:36;;;;;;;11.15;3.72;;;;;;;;;;6085857;29;20060;-85
2023/12/25 01:22:38;;;;;;;9.77;3.58;;;;;;;;;;6089866;29;20152;-84
2023/12/25 01:25:41;;;;;;;10.55;3.72;;;;;;;;;;6083726;29;20049;-86
2023/12/25 01:28:43;;;;;;;11.15;4.40;;;;;;;;;;6084546;29;20240;-83
2023/12/25 01:31:44;;;;;;;10.20;3.10;;;;;;;;;;6087782;29;20247;-86
2023/12/25 01:34:47;;;;;;;7.40;2.80;;;;;;;;;;6083173;29;20053;-85
2023/12/25 01:37:48;;;;;;;11.75;3.80;;;;;;;;;;6084748;29;20107;-86
2023/12/25 01:40:51;;;;;;;10.05;3.40;;;;;;;;;;6088247;29;20048;-87
2023/12/25 01:43:53;;;;;;;10.20;3.38;;;;;;;;;;6083712;29;20049;-83
2023/12/25 01:46:55;;;;;;;7.50;3.42;;;;;;;;;;6080877;29;20056;-86
2023/12/25 01:50:00;;;;;;;12.07;4.05;;;;;;;;;;6085731;29;20048;-86
2023/12/25 01:53:02;;;;;;;12.18;3.55;;;;;;;;;;6086094;29;20049;-85
2023/12/25 01:56:06;;;;;;;11.15;3.60;;;;;;;;;;6084668;29;20071;-87
2023/12/25 01:59:07;;;;;;;16.75;4.05;;;;;;;;;;6085097;29;20053;-86
2023/12/25 02:02:09;;;;;;;11.43;4.07;;;;;;;;;;6086526;29;20063;-86
2023/12/25 02:05:11;;;;;;;11.95;3.83;;;;;;;;;;6087409;29;20052;-86
2023/12/25 02:08:14;;;;;;;9.93;4.28;;;;;;;;;;6087495;29;20057;-85
2023/12/25 02:11:17;;;;;;;11.02;4.75;;;;;;;;;;6084486;29;20056;-86
2023/12/25 02:14:19;;;;;;;10.63;3.90;;;;;;;;;;6084574;29;20068;-86
2023/12/25 02:17:21;;;;;;;13.55;4.03;;;;;;;;;;6082192;29;20057;-86
2023/12/25 02:20:23;;;;;;;10.90;4.47;;;;;;;;;;6086500;29;20067;-86
2023/12/25 02:23:26;;;;;;;8.65;4.00;;;;;;;;;;6086419;29;20108;-86
2023/12/25 02:26:30;;;;;;;10.93;4.30;;;;;;;;;;6088427;29;20055;-86
2023/12/25 02:29:33;;;;;;;12.07;3.92;;;;;;;;;;6090298;29;20048;-86
2023/12/25 02:32:34;;;;;;;12.05;4.35;;;;;;;;;;6085903;29;20061;-86
2023/12/25 02:35:36;;;;;;;12.38;5.28;;;;;;;;;;6085693;29;20077;-85
2023/12/25 02:38:38;;;;;;;16.00;5.20;;;;;;;;;;6086293;29;20202;-86
2023/12/25 02:41:41;;;;;;;10.73;4.43;;;;;;;;;;6086707;29;20060;-86
2023/12/25 02:44:43;;;;;;;12.35;4.15;;;;;;;;;;6083226;29;20053;-85
2023/12/25 02:47:44;;;;;;;10.38;4.40;;;;;;;;;;6085078;29;20064;-86
2023/12/25 02:50:46;;;;;;;11.30;5.40;;;;;;;;;;6084169;29;20324;-86
2023/12/25 02:53:48;;;;;;;12.27;4.90;;;;;;;;;;6085387;29;20059;-85
2023/12/25 02:56:51;;;;;;;12.35;4.97;;;;;;;;;;6085524;29;20060;-85
2023/12/25 02:59:52;;;;;;;11.32;4.85;;;;;;;;;;6082427;29;20057;-85
2023/12/25 03:02:54;;;;;;;12.02;5.20;;;;;;;;;;6084814;29;20064;-85
2023/12/25 03:05:56;;;;;;;13.65;4.93;;;;;;;;;;6080952;29;20053;-86
2023/12/25 03:08:57;;;;;;;13.40;5.05;;;;;;;;;;6082785;29;20052;-84
2023/12/25 03:12:00;;;;;;;10.88;5.75;;;;;;;;;;6084484;29;20059;-86
2023/12/25 03:15:02;;;;;;;13.95;5.45;;;;;;;;;;6081713;29;20535;-85
2023/12/25 03:18:04;;;;;;;13.63;5.70;;;;;;;;;;6085767;29;20053;-85
2023/12/25 03:21:06;;;;;;;16.13;5.50;;;;;;;;;;6085687;29;20072;-86
2023/12/25 03:24:08;;;;;;;14.23;5.50;;;;;;;;;;6088196;29;20048;-86
2023/12/25 03:27:11;;;;;;;11.70;5.18;;;;;;;;;;6087501;29;20057;-86
2023/12/25 03:30:13;;;;;;;15.32;5.95;;;;;;;;;;6085828;29;20289;-86
2023/12/25 03:33:15;;;;;;;12.82;5.80;;;;;;;;;;6081639;29;20139;-86
2023/12/25 03:36:17;;;;;;;15.02;5.82;;;;;;;;;;6086263;29;20071;-85
2023/12/25 03:39:18;;;;;;;14.30;5.63;;;;;;;;;;6082749;29;20064;-85
2023/12/25 03:42:21;;;;;;;13.35;5.35;;;;;;;;;;6084441;29;20065;-86
2023/12/25 03:45:23;;;;;;;15.05;5.45;;;;;;;;;;6083150;29;20061;-85
2023/12/25 03:48:25;;;;;;;13.00;5.85;;;;;;;;;;6082161;29;20048;-86
2023/12/25 03:51:26;;;;;;;11.45;4.97;;;;;;;;;;6081670;29;20096;-85
2023/12/25 03:54:28;;;;;;;7.63;4.38;;;;;;;;;;6084087;29;20066;-86
2023/12/25 03:57:31;;;;;;;10.85;4.78;;;;;;;;;;6085730;29;20090;-85
2023/12/25 04:00:33;;;;;;;14.90;5.35;;;;;;;;;;6085224;29;20364;-85
2023/12/25 04:03:35;;;;;;;13.60;4.68;;;;;;;;;;6084670;29;20367;-86
2023/12/25 04:06:36;;;;;;;9.70;5.50;;;;;;;;;;6082350;29;20344;-86
2023/12/25 04:09:39;;;;;;;14.40;5.30;;;;;;;;;;6080269;29;20414;-86
2023/12/25 04:12:42;;;;;;;10.25;5.05;;;;;;;;;;6081201;29;20060;-85
2023/12/25 04:15:44;;;;;;;10.90;5.18;;;;;;;;;;6086396;29;20045;-85
2023/12/25 04:18:46;;;;;;;10.57;4.75;;;;;;;;;;6086523;29;20714;-85
2023/12/25 04:21:48;;;;;;;10.20;5.03;;;;;;;;;;6083254;29;20052;-86
2023/12/25 04:24:49;;;;;;;11.38;5.10;;;;;;;;;;6075955;29;20236;-84
2023/12/25 04:27:52;;;;;;;14.57;5.15;;;;;;;;;;6075432;29;20237;-85
2023/12/25 04:30:54;;;;;;;13.10;5.25;;;;;;;;;;6080238;29;20082;-86
2023/12/25 04:33:56;;;;;;;12.57;5.55;;;;;;;;;;6074924;29;20049;-85
2023/12/25 04:36:57;;;;;;;11.85;5.38;;;;;;;;;;6077012;29;20048;-86
2023/12/25 04:39:59;;;;;;;14.77;5.72;;;;;;;;;;6074895;29;20056;-86
2023/12/25 04:43:02;;;;;;;10.00;5.07;;;;;;;;;;6076187;29;20324;-86
2023/12/25 04:46:05;;;;;;;10.25;5.00;;;;;;;;;;6073954;29;20064;-85
2023/12/25 04:49:07;;;;;;;11.93;4.80;;;;;;;;;;6076867;29;20111;-87
2023/12/25 04:52:08;;;;;;;15.02;5.00;;;;;;;;;;6074687;29;20064;-85
2023/12/25 04:55:10;;;;;;;16.58;5.03;;;;;;;;;;6077408;29;20467;-86
2023/12/25 04:58:13;;;;;;;14.90;5.97;;;;;;;;;;6082034;29;20057;-85
2023/12/25 05:01:16;;;;;;;14.88;5.13;;;;;;;;;;6080976;29;20052;-87
2023/12/25 05:04:17;;;;;;;13.25;5.10;;;;;;;;;;6079975;29;20061;-85
2023/12/25 05:07:19;;;;;;;10.20;4.53;;;;;;;;;;6082912;29;20045;-86
2023/12/25 05:10:21;;;;;;;9.35;5.15;;;;;;;;;;6078840;29;20063;-87
2023/12/25 05:13:24;;;;;;;11.32;5.28;;;;;;;;;;6081336;29;20060;-88
2023/12/25 05:16:26;;;;;;;14.05;4.93;;;;;;;;;;6082301;29;20052;-84
2023/12/25 05:19:28;;;;;;;8.82;3.70;;;;;;;;;;6080509;29;20060;-87
2023/12/25 05:22:29;;;;;;;12.13;4.65;;;;;;;;;;6081419;29;20056;-86
2023/12/25 05:25:31;;;;;;;15.52;4.32;;;;;;;;;;6079475;29;20076;-85
2023/12/25 05:28:35;;;;;;;12.23;4.93;;;;;;;;;;6083313;29;20057;-88
2023/12/25 05:31:36;;;;;;;11.30;4.85;;;;;;;;;;6079468;29;20248;-87
2023/12/25 05:34:38;;;;;;;12.43;4.00;;;;;;;;;;6083074;29;20083;-85
2023/12/25 05:37:40;;;;;;;11.88;4.55;;;;;;;;;;6083290;29;20343;-87
2023/12/25 05:40:41;;;;;;;13.23;4.72;;;;;;;;;;6079942;29;20053;-86
2023/12/25 05:43:44;;;;;;;10.50;4.32;;;;;;;;;;6076381;29;20064;-87
2023/12/25 05:46:47;;;;;;;11.85;4.10;;;;;;;;;;6081464;29;20255;-86
2023/12/25 05:49:48;;;;;;;16.13;4.40;;;;;;;;;;6082261;29;20055;-87
2023/12/25 05:52:50;;;;;;;10.25;3.45;;;;;;;;;;6079957;29;20055;-87
2023/12/25 05:55:52;;;;;;;8.88;4.40;;;;;;;;;;6080471;29;20057;-85
2023/12/25 05:58:55;;;;;;;9.82;3.38;;;;;;;;;;6079186;29;20051;-87
2023/12/25 06:01:57;;;;;;;9.07;3.83;;;;;;;;;;6079357;29;20049;-87
2023/12/25 06:04:59;;;;;;;8.38;4.30;;;;;;;;;;6080316;29;20328;-87
2023/12/25 06:08:00;;;;;;;10.63;4.53;;;;;;;;;;6082160;29;20052;-86
2023/12/25 06:11:02;;;;;;;6.95;3.55;;;;;;;;;;6080517;29;20057;-86
2023/12/25 06:14:05;;;;;;;10.65;3.75;;;;;;;;;;6081257;29;20053;-87
2023/12/25 06:17:07;;;;;;;16.20;5.45;;;;;;;;;;6077950;29;20225;-86
2023/12/25 06:20:09;;;;;;;10.50;4.63;;;;;;;;;;6078344;29;20057;-87
2023/12/25 06:23:11;;;;;;;16.38;4.13;;;;;;;;;;6077934;29;20060;-86
2023/12/25 06:26:13;;;;;;;11.48;4.30;;;;;;;;;;6081146;29;20052;-87
2023/12/25 06:29:16;;;;;;;13.27;4.70;;;;;;;;;;6077393;29;20057;-86
2023/12/25 06:32:17;;;;;;;9.75;4.07;;;;;;;;;;6081018;29;20060;-87
2023/12/25 06:35:19;;;;;;;13.98;4.63;;;;;;;;;;6078808;29;20080;-87
2023/12/25 06:38:21;;;;;;;11.52;4.30;;;;;;;;;;6077540;29;20460;-87
2023/12/25 06:41:23;;;;;;;8.70;3.88;;;;;;;;;;6080426;29;20076;-86
2023/12/25 06:44:26;;;;;;;8.15;3.85;;;;;;;;;;6077572;29;20049;-86
2023/12/25 06:47:28;;;;;;;11.48;4.75;;;;;;;;;;6076618;29;20053;-86
2023/12/25 06:50:30;;;;;;;10.73;4.88;;;;;;;;;;6078297;29;20045;-87
2023/12/25 06:53:31;;;;;;;11.38;4.22;;;;;;;;;;6074947;29;20068;-86
2023/12/25 06:56:33;;;;;;;11.13;4.88;;;;;;;;;;6077379;29;20056;-87
2023/12/25 06:59:36;;;;;;;11.05;4.35;;;;;;;;;;6078640;29;20048;-87
2023/12/25 07:02:38;;;;;;;9.10;4.38;;;;;;;;;;6076012;29;20293;-86
2023/12/25 07:05:40;;;;;;;9.25;4.82;;;;;;;;;;6076902;29;20052;-87
2023/12/25 07:08:41;;;;;;;13.32;5.20;;;;;;;;;;6076590;29;20120;-86
2023/12/25 07:11:43;;;;;;;10.00;4.60;;;;;;;;;;6077166;29;20068;-86
2023/12/25 07:14:46;;;;;;;10.05;4.20;;;;;;;;;;6042294;29;1112402;-85
2023/12/25 07:17:48;;;;;;;12.15;5.32;;;;;;;;;;6081037;29;20316;-86
2023/12/25 07:20:50;;;;;;;13.73;4.78;;;;;;;;;;6078494;29;20045;-85
2023/12/25 07:23:52;;;;;;;10.45;4.97;;;;;;;;;;6078753;29;20060;-85
2023/12/25 07:26:54;;;;;;;12.07;4.88;;;;;;;;;;6078907;29;20375;-85
2023/12/25 07:29:57;;;;;;;10.07;5.28;;;;;;;;;;6078455;29;20053;-86
2023/12/25 07:32:59;;;;;;;9.93;5.50;;;;;;;;;;6078866;29;20060;-86
2023/12/25 07:36:00;;;;;;;17.10;6.85;;;;;;;;;;6077137;29;20345;-85
2023/12/25 07:39:05;;;;;;;15.18;6.82;;;;;;;;;;6081584;29;20367;-85
2023/12/25 07:42:07;;;;;;;13.05;6.28;;;;;;;;;;6079968;29;20057;-85
2023/12/25 07:45:12;;;;;;;13.43;6.97;;;;;;;;;;6076396;29;20384;-85
2023/12/25 07:48:14;;;;;;;12.07;6.20;;;;;;;;;;6075257;29;20053;-85
2023/12/25 07:51:15;;;;;;;16.23;5.95;;;;;;;;;;6080304;29;20064;-85
2023/12/25 07:54:17;;;;;;;11.93;5.57;;;;;;;;;;6083441;29;20060;-85
2023/12/25 07:57:20;;;;;;;12.30;5.70;;;;;;;;;;6078848;29;20059;-85
2023/12/25 08:00:23;;;;;;;10.23;5.60;;;;;;;;;;6078293;29;20052;-86
2023/12/25 08:03:25;;;;;;;10.93;5.53;;;;;;;;;;6085212;29;20052;-85
2023/12/25 08:06:27;;;;;;;10.20;5.82;;;;;;;;;;6082858;29;20240;-84
2023/12/25 08:09:28;;;;;;;13.35;6.25;;;;;;;;;;6080633;29;20057;-84
2023/12/25 08:12:30;;;;;;;11.68;5.47;;;;;;;;;;6083483;29;20060;-84
2023/12/25 08:15:33;;;;;;;12.48;5.15;;;;;;;;;;6085014;29;20072;-84
2023/12/25 08:18:35;;;;;;;10.10;5.53;;;;;;;;;;6079946;29;20052;-85
2023/12/25 08:21:37;;;;;;;10.85;5.72;;;;;;;;;;6083448;29;20472;-85
2023/12/25 08:24:38;;;;;;;7.72;5.25;;;;;;;;;;6077321;29;20056;-82
2023/12/25 08:27:40;;;;;;;10.40;5.53;;;;;;;;;;6081685;29;20048;-86
2023/12/25 08:30:43;;;;;;;12.77;4.97;;;;;;;;;;6083976;29;20357;-85
2023/12/25 08:33:45;;;;;;;11.83;5.43;;;;;;;;;;6081074;29;20064;-85
2023/12/25 08:36:47;;;;;;;9.32;4.85;;;;;;;;;;6081889;29;20469;-85
2023/12/25 08:39:49;;;;;;;6.88;4.13;;;;;;;;;;6082481;29;20077;-84
2023/12/25 08:42:50;;;;;;;11.65;4.82;;;;;;;;;;6078770;29;20049;-85
2023/12/25 08:45:53;;;;;;;8.75;4.43;;;;;;;;;;6079108;29;20104;-84
2023/12/25 08:48:55;;;;;;;9.35;4.75;;;;;;;;;;6079296;29;20056;-85
2023/12/25 08:51:57;;;;;;;11.30;5.35;;;;;;;;;;6078836;29;20407;-85
2023/12/25 08:54:58;;;;;;;10.57;5.10;;;;;;;;;;6075172;29;20057;-85
2023/12/25 08:58:00;;;;;;;13.77;5.93;;;;;;;;;;6076766;29;20359;-84
2023/12/25 09:01:03;;;;;;;10.50;5.28;;;;;;;;;;6071847;29;20356;-85
2023/12/25 09:04:05;;;;;;;13.10;5.23;;;;;;;;;;6077234;29;20109;-85
2023/12/25 09:07:06;;;;;;;9.30;4.47;;;;;;;;;;6075092;29;20480;-85
2023/12/25 09:10:09;;;;;;;9.73;4.72;;;;;;;;;;6077279;29;20061;-85
2023/12/25 09:13:11;;;;;;;11.30;4.57;;;;;;;;;;6077022;29;20075;-85
2023/12/25 09:16:14;;;;;;;9.10;4.90;;;;;;;;;;6077317;29;20053;-85
2023/12/25 09:19:16;;;;;;;10.10;4.30;;;;;;;;;;6075159;29;20060;-86
2023/12/25 09:22:17;;;;;;;8.30;4.18;;;;;;;;;;6074852;29;20060;-85
2023/12/25 09:25:19;;;;;;;8.30;4.28;;;;;;;;;;6076391;29;20064;-85
2023/12/25 09:28:20;;;;;;;11.90;5.05;;;;;;;;;;6078162;29;20111;-85
2023/12/25 09:31:24;;;;;;;8.10;4.03;;;;;;;;;;6074027;29;20067;-85
2023/12/25 09:34:25;;;;;;;9.38;3.67;;;;;;;;;;6076836;29;20055;-86
2023/12/25 09:37:27;;;;;;;10.65;4.78;;;;;;;;;;6076403;29;20082;-85
2023/12/25 09:40:29;;;;;;;9.95;3.90;;;;;;;;;;6077013;29;20063;-86
2023/12/25 09:43:31;;;;;;;11.35;4.35;;;;;;;;;;6080360;29;20060;-86
2023/12/25 09:46:34;;;;;;;9.80;4.20;;;;;;;;;;6080351;29;20049;-86
2023/12/25 09:49:38;;;;;;;11.75;4.88;;;;;;;;;;6077928;29;20289;-86
2023/12/25 09:52:39;;;;;;;11.02;4.15;;;;;;;;;;6078371;29;20319;-84
2023/12/25 09:55:41;;;;;;;8.25;3.80;;;;;;;;;;6076513;29;20049;-85
2023/12/25 09:58:44;;;;;;;7.75;3.20;;;;;;;;;;6079075;29;20107;-85
2023/12/25 10:01:47;;;;;;;7.87;4.13;;;;;;;;;;6082762;29;20056;-84
2023/12/25 10:04:50;;;;;;;;;;;;;;;;;;6081814;29;20126;-87
2023/12/25 10:07:51;;;;;;;9.52;3.85;;;;;;;;;;6080930;29;19938;-83
2023/12/25 10:10:54;;;;;;;7.20;3.72;;;;;;;;;;6077749;29;20063;-83
2023/12/25 10:13:56;;;;;;;9.00;3.60;;;;;;;;;;6079767;29;20292;-85
2023/12/25 10:16:59;;;;;;;8.40;3.90;;;;;;;;;;6081827;29;20056;-83
2023/12/25 10:20:01;;;;;;;10.23;3.50;;;;;;;;;;6078852;29;20060;-82
2023/12/25 10:23:10;;;;;;;7.63;3.38;;;;;;;;;;6077001;29;20056;-82
2023/12/25 10:26:12;;;;;;;7.85;3.60;;;;;;;;;;6080363;29;20079;-83
2023/12/25 10:29:14;;;;;;;6.00;3.03;;;;;;;;;;6078333;29;20061;-82
2023/12/25 10:32:20;;;;;;;5.93;3.35;;;;;;;;;;6076568;29;20056;-82
2023/12/25 10:35:22;;;;;;;6.85;3.55;;;;;;;;;;6077368;29;20065;-82
2023/12/25 10:38:26;;;;;;;7.20;3.65;;;;;;;;;;6075182;29;20052;-85
2023/12/25 10:41:32;;;;;;;11.38;3.92;;;;;;;;;;6079175;29;20053;-84
2023/12/25 10:44:35;;;;;;;9.38;3.83;;;;;;;;;;6079355;29;20229;-85
2023/12/25 10:47:39;;;;;;;7.15;3.42;;;;;;;;;;6077388;29;20152;-83
2023/12/25 10:50:41;;;;;;;11.48;5.00;;;;;;;;;;6075444;29;20048;-82
2023/12/25 10:53:44;;;;;;;9.55;3.78;;;;;;;;;;6078694;29;20071;-82
2023/12/25 10:56:48;;;;;;;8.10;4.28;;;;;;;;;;6076304;29;20056;-82
2023/12/25 10:59:50;;;;;;;11.32;4.03;;;;;;;;;;6077682;29;20075;-83
2023/12/25 11:02:55;;;;;;;8.63;3.88;;;;;;;;;;6075960;29;20045;-82
2023/12/25 11:05:57;;;;;;;8.48;4.50;;;;;;;;;;6073115;29;20308;-82
2023/12/25 11:08:59;;;;;;;6.60;3.53;;;;;;;;;;6074766;29;20347;-82
2023/12/25 11:12:01;;;;;;;10.20;3.75;;;;;;;;;;6077545;29;20057;-82
2023/12/25 11:15:03;;;;;;;12.13;4.30;;;;;;;;;;6075606;29;20190;-81
2023/12/25 11:18:09;;;;;;;7.28;3.50;;;;;;;;;;6076067;29;20084;-81
2023/12/25 11:21:12;;;;;;;9.68;3.80;;;;;;;;;;6073805;29;20085;-82
2023/12/25 11:24:13;;;;;;;9.50;3.38;;;;;;;;;;6080075;29;20067;-83
2023/12/25 11:27:17;;;;;;;8.73;2.88;;;;;;;;;;6079917;29;20256;-82
2023/12/25 11:30:20;;;;;;;5.95;2.50;;;;;;;;;;6077401;29;20064;-82
2023/12/25 11:33:23;;;;;;;;;;;;;;;;;;6075032;29;20452;-82
2023/12/25 11:36:30;;;;;;;6.70;2.08;;;;;;;;;;6075580;29;20215;-82
2023/12/25 11:39:31;;;;;;;9.38;2.63;;;;;;;;;;6076594;29;20332;-82
2023/12/25 11:42:34;;;;;;;7.90;2.72;;;;;;;;;;6078387;29;20128;-83
2023/12/25 11:45:37;;;;;;;6.38;2.15;;;;;;;;;;6076320;29;20315;-81
2023/12/25 11:48:42;;;;;;;7.68;2.47;;;;;;;;;;6074721;29;20053;-82
2023/12/25 11:51:47;;;;;;;6.32;2.90;;;;;;;;;;6075017;29;20237;-82
2023/12/25 11:54:49;;;;;;;9.35;3.05;;;;;;;;;;6075915;29;20324;-83
2023/12/25 11:57:51;;;;;;;7.50;2.67;;;;;;;;;;6076694;29;20067;-82
2023/12/25 12:00:53;;;;;;;7.72;2.80;;;;;;;;;;6075292;29;20432;-83
2023/12/25 12:03:56;;;;;;;8.25;2.45;;;;;;;;;;6071446;29;20053;-85
2023/12/25 12:06:58;;;;;;;4.25;2.03;;;;;;;;;;6073976;29;20105;-84
2023/12/25 12:10:00;;;;;;;4.93;2.03;;;;;;;;;;6074887;29;20063;-83
2023/12/25 12:13:01;;;;;;;8.18;2.45;;;;;;;;;;6076693;29;20068;-80
2023/12/25 12:16:03;;;;;;;7.30;2.17;;;;;;;;;;6073989;29;20064;-80
2023/12/25 12:19:06;;;;;;;6.75;2.38;;;;;;;;;;6073325;29;20057;-82
2023/12/25 12:22:08;;;;;;;7.82;2.47;;;;;;;;;;6077396;29;20276;-79
2023/12/25 12:25:14;;;;;;;3.97;2.00;;;;;;;;;;6072166;29;20061;-80
2023/12/25 12:28:16;;;;;;;7.00;2.13;;;;;;;;;;6074215;29;20376;-80
2023/12/25 12:31:17;;;;;;;5.95;1.88;;;;;;;;;;6074569;29;20060;-80
2023/12/25 12:34:20;;;;;;;7.43;2.53;;;;;;;;;;6073759;29;20060;-81
2023/12/25 12:37:22;;;;;;;6.13;2.00;;;;;;;;;;6076998;29;20052;-80
2023/12/25 12:40:24;;;;;;;6.07;2.30;;;;;;;;;;6073949;29;20248;-81
2023/12/25 12:43:26;;;;;;;10.53;3.87;;;;;;;;;;6074221;29;20197;-81
2023/12/25 12:46:28;;;;;;;9.65;2.60;;;;;;;;;;6070435;29;20057;-80
2023/12/25 12:49:31;;;;;;;7.82;2.72;;;;;;;;;;6070657;29;20048;-81
2023/12/25 12:52:33;;;;;;;8.05;2.40;;;;;;;;;;6072687;29;20351;-81
2023/12/25 12:55:36;;;;;;;5.07;2.10;;;;;;;;;;6075835;29;20120;-83
2023/12/25 12:58:37;;;;;;;6.95;2.78;;;;;;;;;;6073609;29;20056;-83
2023/12/25 13:01:39;;;;;;;6.63;2.20;;;;;;;;;;6076349;29;20072;-84
2023/12/25 13:04:43;;;;;;;7.03;2.15;;;;;;;;;;6074790;29;20087;-86
2023/12/25 13:07:45;;;;;;;6.53;2.20;;;;;;;;;;6076465;29;20044;-84
2023/12/25 13:10:47;;;;;;;5.75;2.20;;;;;;;;;;6073911;29;20116;-85
2023/12/25 13:13:48;;;;;;;5.30;2.13;;;;;;;;;;6073129;29;20278;-86
2023/12/25 13:16:50;;;;;;;6.97;2.25;;;;;;;;;;6077838;29;20041;-84
2023/12/25 13:19:55;;;;;;;5.50;2.00;;;;;;;;;;6078364;29;20374;-85
2023/12/25 13:22:57;;;;;;;8.25;2.38;;;;;;;;;;6079395;29;20077;-84
2023/12/25 13:25:58;;;;;;;8.38;2.40;;;;;;;;;;6077903;29;20052;-85
2023/12/25 13:29:00;;;;;;;8.43;2.55;;;;;;;;;;6078714;29;20064;-85
2023/12/25 13:32:02;;;;;;;9.30;2.70;;;;;;;;;;6081371;29;20378;-86
2023/12/25 13:35:07;;;;;;;9.95;2.80;;;;;;;;;;6079758;29;20137;-86
2023/12/25 13:38:08;;;;;;;6.65;2.22;;;;;;;;;;6076922;29;20164;-87
2023/12/25 13:41:10;;;;;;;8.77;2.42;;;;;;;;;;6077672;29;20103;-85
2023/12/25 13:44:12;;;;;;;6.00;2.28;;;;;;;;;;6080872;29;20052;-90
2023/12/25 13:47:14;;;;;;;9.00;2.47;;;;;;;;;;6083425;29;20048;-87
2023/12/25 13:50:18;;;;;;;4.88;2.05;;;;;;;;;;6081211;29;20417;-88
2023/12/25 13:53:20;;;;;;;4.80;2.30;;;;;;;;;;6079364;29;20056;-89
2023/12/25 13:56:24;;;;;;;7.13;2.47;;;;;;;;;;6080100;29;20052;-83
2023/12/25 13:59:25;;;;;;;6.65;2.25;;;;;;;;;;6080470;29;20111;-82
2023/12/25 14:02:27;;;;;;;7.25;2.58;;;;;;;;;;6079646;29;20140;-84
2023/12/25 14:05:30;;;;;;;6.20;2.45;;;;;;;;;;6076664;29;20048;-80
2023/12/25 14:08:32;;;;;;;7.03;2.65;;;;;;;;;;6076671;29;20057;-83
2023/12/25 14:11:34;;;;;;;6.00;2.72;;;;;;;;;;6079529;29;20068;-81
2023/12/25 14:14:35;;;;;;;8.73;2.80;;;;;;;;;;6078465;29;20080;-82
2023/12/25 14:17:37;;;;;;;9.55;3.00;;;;;;;;;;6075957;29;20064;-81
2023/12/25 14:20:40;;;;;;;5.80;2.67;;;;;;;;;;6075188;29;20053;-80
2023/12/25 14:23:42;;;;;;;7.72;2.58;;;;;;;;;;6076300;29;20136;-83
2023/12/25 14:26:43;;;;;;;7.18;2.53;;;;;;;;;;6076604;29;20071;-82
2023/12/25 14:29:45;;;;;;;10.40;2.55;;;;;;;;;;6075720;29;20062;-82
2023/12/25 14:32:50;;;;;;;10.40;2.95;;;;;;;;;;6077020;29;20072;-80
2023/12/25 14:35:53;;;;;;;6.03;2.33;;;;;;;;;;6076642;29;20057;-82
2023/12/25 14:38:55;;;;;;;10.18;3.10;;;;;;;;;;6077590;29;20273;-81
2023/12/25 14:41:57;;;;;;;10.55;3.20;;;;;;;;;;6076650;29;20056;-82
2023/12/25 14:44:58;;;;;;;8.77;2.60;;;;;;;;;;6078695;29;20049;-82
2023/12/25 14:48:00;;;;;;;8.05;3.28;;;;;;;;;;6076331;29;20380;-82
2023/12/25 14:51:03;;;;;;;8.45;2.78;;;;;;;;;;6076072;29;20349;-83
2023/12/25 14:54:05;;;;;;;7.97;2.50;;;;;;;;;;6077589;29;20060;-83
2023/12/25 14:57:07;;;;;;;7.47;2.70;;;;;;;;;;6076216;29;20063;-83
2023/12/25 15:00:11;;;;;;;9.48;3.22;;;;;;;;;;6076750;29;20087;-86
2023/12/25 15:03:12;;;;;;;7.05;3.33;;;;;;;;;;6078013;29;20060;-88
2023/12/25 15:06:16;;;;;;;6.78;2.65;;;;;;;;;;6077842;29;20132;-91
2023/12/25 15:09:17;;;;;;;8.68;2.67;;;;;;;;;;6077091;29;20059;-85
2023/12/25 15:12:19;;;;;;;9.25;2.83;;;;;;;;;;6077631;29;20056;-88
2023/12/25 15:15:21;;;;;;;7.38;2.22;;;;;;;;;;6078715;29;20064;-84
2023/12/25 15:18:23;;;;;;;7.25;2.30;;;;;;;;;;6074676;29;20221;-86
2023/12/25 15:21:26;;;;;;;10.00;2.53;;;;;;;;;;6076745;29;20379;-86
2023/12/25 15:24:27;;;;;;;5.82;2.33;;;;;;;;;;6076537;29;20048;-88
2023/12/25 15:27:29;;;;;;;9.00;3.20;;;;;;;;;;6078210;29;20248;-84
2023/12/25 15:30:31;;;;;;;8.38;3.00;;;;;;;;;;6079783;29;20061;-88
2023/12/25 15:33:32;;;;;;;10.32;2.90;;;;;;;;;;6074038;29;20265;-85
2023/12/25 15:36:35;;;;;;;7.43;3.30;;;;;;;;;;6072478;29;20060;-86
2023/12/25 15:39:37;;;;;;;7.93;3.38;;;;;;;;;;6075728;29;20060;-84
2023/12/25 15:42:39;;;;;;;10.07;3.38;;;;;;;;;;6077976;29;20049;-85
2023/12/25 15:45:42;;;;;;;9.50;3.03;;;;;;;;;;6077522;29;20120;-85
2023/12/25 15:48:44;;;;;;;8.43;3.08;;;;;;;;;;6078792;29;20359;-88
2023/12/25 15:51:47;;;;;;;11.75;3.80;;;;;;;;;;6071210;29;20041;-87
2023/12/25 15:54:49;;;;;;;12.35;3.60;;;;;;;;;;6075114;29;20052;-86
2023/12/25 15:57:51;;;;;;;11.20;3.78;;;;;;;;;;6074242;29;20053;-87
2023/12/25 16:00:52;;;;;;;6.88;3.25;;;;;;;;;;6077093;29;20052;-86
2023/12/25 16:03:54;;;;;;;12.10;3.95;;;;;;;;;;6075112;29;20045;-89
2023/12/25 16:06:57;;;;;;;13.70;3.22;;;;;;;;;;6076149;29;20379;-87
2023/12/25 16:09:59;;;;;;;9.37;3.40;;;;;;;;;;6076740;29;20044;-89
2023/12/25 16:13:00;;;;;;;9.77;3.58;;;;;;;;;;6078742;29;20064;-92
2023/12/25 16:16:02;;;;;;;8.60;3.05;;;;;;;;;;6076962;29;20320;-86
2023/12/25 16:19:04;;;;;;;8.70;3.17;;;;;;;;;;6073538;29;20288;-88
2023/12/25 16:22:08;;;;;;;8.82;3.42;;;;;;;;;;6075833;29;20049;-87
2023/12/25 16:25:11;;;;;;;11.30;3.80;;;;;;;;;;6077688;29;20225;-85
2023/12/25 16:28:13;;;;;;;12.77;2.97;;;;;;;;;;6079224;29;20045;-86
2023/12/25 16:31:14;;;;;;;12.45;4.63;;;;;;;;;;6075360;29;20068;-88
2023/12/25 16:34:16;;;;;;;8.55;4.30;;;;;;;;;;6076501;29;20119;-84
2023/12/25 16:37:19;;;;;;;5.97;3.00;;;;;;;;;;6078494;29;20057;-88
2023/12/25 16:40:22;;;;;;;9.23;3.87;;;;;;;;;;6076049;29;20057;-89
2023/12/25 16:43:24;;;;;;;10.18;3.55;;;;;;;;;;6078159;29;20457;-89
2023/12/25 16:46:27;;;;;;;9.20;3.20;;;;;;;;;;6074971;29;20045;-89
2023/12/25 16:49:28;;;;;;;7.95;3.17;;;;;;;;;;6075243;29;20048;-85
2023/12/25 16:52:31;;;;;;;9.30;3.60;;;;;;;;;;6078245;29;20128;-91
2023/12/25 16:55:33;;;;;;;9.67;3.70;;;;;;;;;;6075215;29;20088;-86
2023/12/25 16:58:40;;;;;;;11.45;3.38;;;;;;;;;;6074874;29;20714;-86
2023/12/25 17:01:42;;;;;;;11.80;3.80;;;;;;;;;;6075422;29;20053;-88
2023/12/25 17:04:44;;;;;;;12.15;4.20;;;;;;;;;;6079361;29;20060;-88
2023/12/25 17:07:47;;;;;;;9.60;4.10;;;;;;;;;;6079096;29;20691;-87
2023/12/25 17:10:49;;;;;;;14.10;4.00;;;;;;;;;;6073965;29;20060;-85
2023/12/25 17:13:53;;;;;;;13.13;4.15;;;;;;;;;;6077432;29;20457;-88
2023/12/25 17:16:55;;;;;;;12.30;4.63;;;;;;;;;;6081701;29;20132;-87
2023/12/25 17:19:57;;;;;;;11.98;4.32;;;;;;;;;;6079481;29;20068;-86
2023/12/25 17:23:02;;;;;;;11.98;4.07;;;;;;;;;;6077040;29;20082;-87
2023/12/25 17:26:05;;;;;;;11.07;4.80;;;;;;;;;;6072509;29;20422;-88
2023/12/25 17:29:08;;;;;;;13.13;4.82;;;;;;;;;;6077974;29;20097;-88
2023/12/25 17:32:10;;;;;;;12.60;5.57;;;;;;;;;;6075828;29;20049;-87
2023/12/25 17:35:13;;;;;;;11.85;5.07;;;;;;;;;;6076076;29;20045;-84
2023/12/25 17:38:16;;;;;;;19.37;7.43;;;;;;;;;;6075647;29;20049;-87
2023/12/25 17:41:18;;;;;;;15.63;5.82;;;;;;;;;;6072150;29;20048;-87
2023/12/25 17:44:20;;;;;;;14.18;5.18;;;;;;;;;;6076504;29;20455;-87
2023/12/25 17:47:22;;;;;;;15.90;5.82;;;;;;;;;;6076731;29;20048;-87
2023/12/25 17:50:25;;;;;;;12.68;4.65;;;;;;;;;;6074468;29;20121;-87
2023/12/25 17:53:28;;;;;;;11.13;5.28;;;;;;;;;;6077151;29;20065;-89
2023/12/25 17:56:29;;;;;;;18.43;5.83;;;;;;;;;;6079726;29;20256;-83
2023/12/25 17:59:31;;;;;;;13.48;4.68;;;;;;;;;;6077072;29;20286;-85
2023/12/25 18:02:33;;;;;;;17.60;6.65;;;;;;;;;;6079638;29;20064;-85